Time;durP1;ratioP1;P1;durP2;ratioP2;P2;SDS_P1;SDS_P2;PMS_P1;PMS_P2;Temp;Humidity;BMP_temperature;BMP_pressure;BME280_temperature;BME280_humidity;BME280_pressure;Samples;Min_cycle;Max_cycle;Signal;HPM_P1;HPM_P2
2020/12/23 00:00:50;;;;;;;0.22;0.20;;;12.90;75.80;;;;;;5033108;28;20033;-73
2020/12/23 00:03:15;;;;;;;0.30;0.30;;;12.90;75.70;;;;;;5032716;28;20046;-75
2020/12/23 00:05:41;;;;;;;0.95;0.20;;;12.90;75.80;;;;;;5032893;28;20389;-74
2020/12/23 00:08:07;;;;;;;1.02;0.20;;;12.90;75.70;;;;;;5033105;28;20048;-75
2020/12/23 00:10:33;;;;;;;0.57;0.47;;;12.90;75.80;;;;;;5033008;28;20037;-72
2020/12/23 00:12:58;;;;;;;1.63;0.55;;;12.80;75.90;;;;;;5033094;28;20095;-72
2020/12/23 00:15:24;;;;;;;3.10;0.45;;;12.80;76.00;;;;;;5033047;28;20022;-72
2020/12/23 00:17:49;;;;;;;0.28;0.28;;;12.80;75.90;;;;;;5032973;28;20465;-72
2020/12/23 00:20:15;;;;;;;0.35;0.22;;;12.90;76.00;;;;;;5033022;28;20036;-73
2020/12/23 00:22:40;;;;;;;0.30;0.20;;;12.80;75.80;;;;;;5015325;28;20021;-73
2020/12/23 00:25:06;;;;;;;0.45;0.30;;;12.90;75.80;;;;;;5015231;28;20389;-74
2020/12/23 00:27:32;;;;;;;0.65;0.20;;;12.90;75.50;;;;;;5032938;28;20374;-72
2020/12/23 00:29:57;;;;;;;0.20;0.20;;;12.90;76.40;;;;;;5032814;28;20029;-72
2020/12/23 00:32:27;;;;;;;1.45;0.20;;;13.00;75.20;;;;;;5015134;28;20022;-72
2020/12/23 00:34:53;;;;;;;0.57;0.40;;;13.00;75.20;;;;;;5032817;28;20590;-77
2020/12/23 00:37:18;;;;;;;0.28;0.20;;;13.00;75.10;;;;;;5032741;28;20148;-72
2020/12/23 00:39:44;;;;;;;0.30;0.20;;;13.00;75.00;;;;;;5034199;28;20025;-73
2020/12/23 00:42:09;;;;;;;0.30;0.20;;;13.00;75.20;;;;;;5019054;28;20108;-73
2020/12/23 00:44:35;;;;;;;0.50;0.20;;;12.90;75.30;;;;;;5036512;28;20116;-75
2020/12/23 00:47:01;;;;;;;0.43;0.20;;;12.90;75.30;;;;;;5036582;28;20036;-73
2020/12/23 00:49:27;;;;;;;0.60;0.30;;;12.90;75.50;;;;;;5036652;28;20096;-72
2020/12/23 00:51:52;;;;;;;0.25;0.25;;;12.80;75.50;;;;;;5036490;28;20029;-72
2020/12/23 00:54:18;;;;;;;0.20;0.20;;;12.90;75.60;;;;;;5036607;28;20097;-78
2020/12/23 00:56:44;;;;;;;0.17;0.17;;;12.80;75.50;;;;;;5036472;28;20504;-73
2020/12/23 00:59:10;;;;;;;1.90;0.10;;;12.80;75.40;;;;;;5018736;28;20512;-73
2020/12/23 01:01:36;;;;;;;0.82;0.30;;;12.90;75.50;;;;;;5036093;28;20045;-74
2020/12/23 01:04:02;;;;;;;0.47;0.20;;;12.90;75.60;;;;;;5036350;28;20116;-76
2020/12/23 01:06:28;;;;;;;0.25;0.20;;;12.80;75.40;;;;;;5036256;28;20025;-80
2020/12/23 01:08:54;;;;;;;0.70;0.13;;;12.80;75.40;;;;;;5036301;28;20044;-74
2020/12/23 01:11:20;;;;;;;0.32;0.30;;;12.90;75.40;;;;;;5036121;28;20037;-73
2020/12/23 01:13:46;;;;;;;1.35;0.25;;;12.90;75.20;;;;;;5036093;28;20022;-73
2020/12/23 01:16:11;;;;;;;0.15;0.15;;;12.90;75.10;;;;;;5018274;28;20452;-73
2020/12/23 01:18:37;;;;;;;0.68;0.30;;;12.90;75.00;;;;;;5036051;28;20029;-73
2020/12/23 01:21:03;;;;;;;0.95;0.30;;;12.90;74.90;;;;;;5036061;28;20018;-73
2020/12/23 01:23:28;;;;;;;0.40;0.20;;;13.00;74.90;;;;;;5035907;28;20119;-73
2020/12/23 01:25:55;;;;;;;0.30;0.20;;;12.90;74.90;;;;;;5036045;28;20051;-76
2020/12/23 01:28:21;;;;;;;2.47;0.30;;;12.90;74.80;;;;;;5036062;28;20029;-78
2020/12/23 01:30:47;;;;;;;0.28;0.22;;;13.00;74.90;;;;;;5035819;28;20036;-73
2020/12/23 01:33:13;;;;;;;0.20;0.15;;;13.00;74.80;;;;;;5017940;28;20053;-74
2020/12/23 01:35:39;;;;;;;0.10;0.10;;;12.90;74.50;;;;;;5017927;28;20052;-74
2020/12/23 01:38:05;;;;;;;0.35;0.20;;;13.00;74.30;;;;;;5035716;28;20490;-74
2020/12/23 01:40:30;;;;;;;0.70;0.20;;;13.00;74.30;;;;;;5035726;28;20117;-76
2020/12/23 01:42:56;;;;;;;0.40;0.10;;;13.00;74.40;;;;;;5035612;28;20021;-73
2020/12/23 01:45:21;;;;;;;0.10;0.10;;;13.00;74.40;;;;;;5035623;28;20536;-76
2020/12/23 01:47:47;;;;;;;0.10;0.10;;;13.00;74.40;;;;;;5035568;28;20032;-74
2020/12/23 01:50:13;;;;;;;0.40;0.10;;;13.00;74.40;;;;;;5035595;28;20056;-75
2020/12/23 01:52:39;;;;;;;0.45;0.30;;;13.00;74.30;;;;;;5034788;28;20037;-73
2020/12/23 01:55:09;;;;;;;1.45;0.10;;;13.00;74.10;;;;;;5035319;28;20028;-73
2020/12/23 01:57:35;;;;;;;0.10;0.10;;;13.00;74.10;;;;;;5017633;28;20060;-78
2020/12/23 02:00:03;;;;;;;0.10;0.10;;;13.00;73.90;;;;;;5035404;28;20072;-73
2020/12/23 02:02:31;;;;;;;0.20;0.20;;;13.00;73.80;;;;;;5035097;28;20117;-77
2020/12/23 02:05:07;;;;;;;0.30;0.10;;;13.10;73.70;;;;;;5017465;28;20397;-72
2020/12/23 02:07:33;;;;;;;0.30;0.17;;;13.20;73.20;;;;;;5035312;28;20036;-72
2020/12/23 02:10:01;;;;;;;0.43;0.10;;;13.10;73.40;;;;;;5035222;28;20037;-72
2020/12/23 02:12:26;;;;;;;0.28;0.10;;;13.20;73.50;;;;;;5035209;28;20030;-72
2020/12/23 02:14:56;;;;;;;0.05;0.05;;;13.10;73.40;;;;;;5035027;28;20029;-72
2020/12/23 02:17:22;;;;;;;0.38;0.10;;;13.20;73.20;;;;;;5035059;28;20025;-73
2020/12/23 02:19:49;;;;;;;0.10;0.03;;;13.20;73.00;;;;;;5034944;28;20378;-73
2020/12/23 02:22:30;;;;;;;0.40;0.10;;;13.20;72.90;;;;;;5034949;28;20079;-73
2020/12/23 02:24:56;;;;;;;1.75;0.20;;;13.20;72.90;;;;;;5034844;28;20068;-72
2020/12/23 02:27:23;;;;;;;0.10;0.10;;;13.20;72.70;;;;;;5016982;28;20018;-74
2020/12/23 02:29:51;;;;;;;0.25;0.20;;;13.20;73.00;;;;;;5034860;28;20121;-73
2020/12/23 02:32:18;;;;;;;0.20;0.20;;;13.20;72.70;;;;;;5034751;28;20048;-73
2020/12/23 02:34:44;;;;;;;0.20;0.20;;;13.30;72.30;;;;;;5034548;28;20021;-72
2020/12/23 02:37:11;;;;;;;0.10;0.10;;;13.30;72.10;;;;;;5034672;28;20021;-76
2020/12/23 02:39:38;;;;;;;0.85;0.20;;;13.40;72.10;;;;;;5034579;28;20124;-75
2020/12/23 02:42:05;;;;;;;2.13;0.30;;;13.40;72.10;;;;;;5034580;28;20101;-73
2020/12/23 02:44:30;;;;;;;0.20;0.10;;;13.40;72.10;;;;;;5034500;28;20374;-75
2020/12/23 02:46:57;;;;;;;0.20;0.20;;;13.40;72.20;;;;;;5034953;28;20033;-73
2020/12/23 02:49:24;;;;;;;0.30;0.22;;;13.30;72.20;;;;;;5034485;28;20470;-73
2020/12/23 02:51:49;;;;;;;0.57;0.20;;;13.30;72.30;;;;;;5034404;28;20064;-73
2020/12/23 02:54:15;;;;;;;0.30;0.20;;;13.40;72.20;;;;;;5034595;28;20053;-73
2020/12/23 02:56:41;;;;;;;0.60;0.17;;;13.40;72.00;;;;;;5034267;28;20171;-73
2020/12/23 02:59:07;;;;;;;1.05;0.10;;;13.40;72.00;;;;;;5034479;28;20072;-73
2020/12/23 03:01:34;;;;;;;0.10;0.10;;;13.40;71.60;;;;;;5033970;28;20041;-73
2020/12/23 03:03:59;;;;;;;0.10;0.10;;;13.40;71.80;;;;;;5033022;28;20037;-73
2020/12/23 03:06:25;;;;;;;0.20;0.20;;;13.40;71.70;;;;;;5034135;28;20028;-73
2020/12/23 03:08:50;;;;;;;0.20;0.13;;;13.40;71.20;;;;;;5034276;28;20030;-72
2020/12/23 03:11:16;;;;;;;0.80;0.13;;;13.50;71.00;;;;;;5034945;28;20017;-73
2020/12/23 03:13:41;;;;;;;0.38;0.13;;;13.50;71.00;;;;;;5036695;28;20068;-73
2020/12/23 03:16:07;;;;;;;0.55;0.20;;;13.50;70.70;;;;;;5035504;28;20082;-73
2020/12/23 03:18:33;;;;;;;0.10;0.10;;;13.50;70.20;;;;;;5039743;28;20034;-73
2020/12/23 03:20:58;;;;;;;2.13;0.40;;;13.60;70.10;;;;;;5034322;28;20025;-73
2020/12/23 03:23:24;;;;;;;1.60;0.05;;;13.60;69.70;;;;;;5036415;28;20038;-73
2020/12/23 03:25:49;;;;;;;0.20;0.10;;;13.60;69.80;;;;;;5033431;28;20025;-73
2020/12/23 03:28:15;;;;;;;0.20;0.15;;;13.60;69.70;;;;;;5033455;28;20035;-73
2020/12/23 03:30:40;;;;;;;0.10;0.10;;;13.70;69.60;;;;;;5033744;28;20068;-73
2020/12/23 03:33:06;;;;;;;1.45;0.17;;;13.70;69.70;;;;;;5033671;28;20021;-74
2020/12/23 03:35:32;;;;;;;0.63;0.20;;;13.70;69.60;;;;;;5033619;28;20025;-73
2020/12/23 03:37:57;;;;;;;1.52;0.17;;;13.70;69.60;;;;;;5015770;28;20021;-74
2020/12/23 03:40:23;;;;;;;1.60;0.20;;;13.70;69.50;;;;;;5033526;28;20065;-73
2020/12/23 03:42:48;;;;;;;0.43;0.15;;;13.70;69.30;;;;;;5033436;28;20026;-73
2020/12/23 03:45:14;;;;;;;0.00;0.00;;;13.70;69.30;;;;;;5033332;28;20048;-75
2020/12/23 03:47:39;;;;;;;1.70;0.10;;;13.70;69.30;;;;;;5033318;28;20021;-73
2020/12/23 03:50:05;;;;;;;0.17;0.10;;;13.70;69.50;;;;;;5033325;28;20036;-73
2020/12/23 03:52:31;;;;;;;0.20;0.20;;;13.60;69.40;;;;;;5033384;28;20064;-73
2020/12/23 03:54:57;;;;;;;0.20;0.20;;;13.60;69.60;;;;;;5033487;28;20029;-72
2020/12/23 03:57:22;;;;;;;0.13;0.10;;;13.60;69.60;;;;;;5033461;28;20406;-73
2020/12/23 03:59:48;;;;;;;0.28;0.10;;;13.60;69.40;;;;;;5033281;28;20022;-73
2020/12/23 04:02:13;;;;;;;1.27;0.20;;;13.60;69.60;;;;;;5033136;28;20057;-73
2020/12/23 04:04:39;;;;;;;0.20;0.20;;;13.60;69.80;;;;;;5015353;28;20033;-73
2020/12/23 04:07:04;;;;;;;1.25;0.30;;;13.50;70.20;;;;;;5033262;28;20049;-73
2020/12/23 04:09:30;;;;;;;0.10;0.10;;;13.50;70.40;;;;;;5033600;28;20021;-80
2020/12/23 04:11:55;;;;;;;0.20;0.20;;;13.50;70.50;;;;;;5033120;28;20533;-73
2020/12/23 04:14:21;;;;;;;0.60;0.20;;;13.40;70.70;;;;;;5014979;28;20029;-73
2020/12/23 04:16:46;;;;;;;1.58;0.50;;;13.50;71.00;;;;;;5032886;28;20358;-73
2020/12/23 04:19:12;;;;;;;0.10;0.10;;;13.40;70.90;;;;;;5032911;28;20139;-73
2020/12/23 04:21:38;;;;;;;1.17;0.20;;;13.40;70.80;;;;;;5015144;28;20160;-73
2020/12/23 04:24:03;;;;;;;0.30;0.20;;;13.40;70.70;;;;;;5032862;28;20065;-73
2020/12/23 04:26:29;;;;;;;0.95;0.40;;;13.30;71.10;;;;;;5032992;28;20018;-73
2020/12/23 04:28:54;;;;;;;0.68;0.30;;;13.30;71.80;;;;;;5032940;28;20029;-73
2020/12/23 04:31:20;;;;;;;0.20;0.20;;;13.20;72.40;;;;;;5032952;28;20022;-73
2020/12/23 04:33:45;;;;;;;0.80;0.40;;;13.10;73.10;;;;;;5032603;28;20026;-72
2020/12/23 04:36:11;;;;;;;0.93;0.43;;;13.00;73.40;;;;;;5015224;28;20032;-73
2020/12/23 04:38:36;;;;;;;0.70;0.40;;;12.90;73.70;;;;;;5014999;28;20025;-72
2020/12/23 04:41:02;;;;;;;0.65;0.63;;;12.80;74.00;;;;;;5032900;28;20022;-73
2020/12/23 04:43:27;;;;;;;0.63;0.52;;;12.70;74.30;;;;;;5032650;28;20029;-73
2020/12/23 04:45:53;;;;;;;0.70;0.60;;;12.70;74.60;;;;;;5032569;28;20032;-72
2020/12/23 04:48:24;;;;;;;0.57;0.57;;;12.70;74.80;;;;;;5032881;28;20071;-74
2020/12/23 04:50:54;;;;;;;1.25;0.50;;;12.60;74.70;;;;;;5032646;28;20096;-73
2020/12/23 04:53:19;;;;;;;2.05;0.60;;;12.60;74.80;;;;;;5032662;28;20022;-72
2020/12/23 04:55:45;;;;;;;0.77;0.47;;;12.60;74.60;;;;;;5032613;28;20036;-73
2020/12/23 04:58:12;;;;;;;1.48;0.70;;;12.60;74.40;;;;;;5032683;28;20022;-73
2020/12/23 05:00:37;;;;;;;1.33;0.80;;;12.60;74.50;;;;;;5014916;28;20029;-73
2020/12/23 05:03:03;;;;;;;1.80;0.80;;;12.60;74.40;;;;;;5032287;28;20050;-73
2020/12/23 05:05:29;;;;;;;1.10;0.80;;;12.50;74.60;;;;;;5032533;28;20037;-73
2020/12/23 05:07:55;;;;;;;0.80;0.57;;;12.50;74.70;;;;;;5032501;28;20052;-74
2020/12/23 05:10:21;;;;;;;1.48;0.60;;;12.50;74.80;;;;;;5032466;28;20037;-74
2020/12/23 05:12:46;;;;;;;1.35;0.77;;;12.50;75.00;;;;;;5032502;28;20072;-74
2020/12/23 05:15:12;;;;;;;1.90;1.05;;;12.40;75.10;;;;;;5032453;28;20022;-73
2020/12/23 05:17:44;;;;;;;0.98;0.80;;;12.40;75.30;;;;;;5032436;28;20022;-73
2020/12/23 05:20:10;;;;;;;1.90;1.23;;;12.40;75.20;;;;;;5032486;28;20079;-74
2020/12/23 05:22:36;;;;;;;1.38;0.70;;;12.30;75.40;;;;;;5014577;28;20033;-74
2020/12/23 05:25:02;;;;;;;0.95;0.70;;;12.30;75.60;;;;;;5032253;28;20029;-74
2020/12/23 05:27:31;;;;;;;1.77;0.75;;;12.20;75.60;;;;;;5034675;28;20547;-74
2020/12/23 05:29:57;;;;;;;1.00;0.70;;;12.20;75.70;;;;;;5035752;28;20527;-75
2020/12/23 05:32:23;;;;;;;0.98;0.70;;;12.20;76.00;;;;;;5035865;28;20021;-74
2020/12/23 05:34:51;;;;;;;0.88;0.60;;;12.10;76.10;;;;;;5035567;28;20032;-75
2020/12/23 05:37:20;;;;;;;1.27;0.60;;;12.10;76.00;;;;;;5035760;28;20013;-75
2020/12/23 05:39:47;;;;;;;0.90;0.80;;;12.10;76.10;;;;;;5035655;28;20043;-73
2020/12/23 05:42:14;;;;;;;1.45;0.60;;;12.10;76.20;;;;;;5035701;28;20021;-73
2020/12/23 05:44:40;;;;;;;1.00;0.60;;;12.10;76.20;;;;;;5035320;28;20033;-74
2020/12/23 05:47:05;;;;;;;0.65;0.52;;;12.10;76.20;;;;;;5035678;28;20528;-73
2020/12/23 05:49:38;;;;;;;1.65;0.63;;;12.10;76.20;;;;;;5017664;28;20026;-74
2020/12/23 05:52:04;;;;;;;1.00;0.60;;;12.10;76.00;;;;;;5035511;28;20052;-73
2020/12/23 05:54:30;;;;;;;1.55;0.85;;;12.10;76.00;;;;;;5017251;28;20083;-74
2020/12/23 05:56:55;;;;;;;1.42;0.75;;;12.00;76.00;;;;;;5034961;28;20029;-74
2020/12/23 05:59:21;;;;;;;0.88;0.70;;;12.00;75.90;;;;;;5034947;28;20404;-74
2020/12/23 06:01:48;;;;;;;1.35;0.85;;;12.10;76.00;;;;;;5034737;28;20042;-75
2020/12/23 06:04:15;;;;;;;1.52;0.90;;;12.00;75.70;;;;;;5034882;28;20033;-75
2020/12/23 06:06:44;;;;;;;0.60;0.57;;;12.10;75.80;;;;;;5034883;28;20076;-74
2020/12/23 06:09:11;;;;;;;3.05;0.60;;;12.00;75.60;;;;;;5034706;28;20100;-74
2020/12/23 06:11:45;;;;;;;1.45;0.65;;;12.10;75.60;;;;;;5034742;28;20030;-74
2020/12/23 06:14:23;;;;;;;1.33;0.70;;;12.10;75.50;;;;;;5035032;28;20053;-74
2020/12/23 06:17:01;;;;;;;0.77;0.50;;;12.10;75.40;;;;;;5035025;28;20045;-74
2020/12/23 06:19:38;;;;;;;1.05;0.70;;;12.10;75.40;;;;;;5035086;28;20443;-76
2020/12/23 06:22:05;;;;;;;1.05;0.65;;;12.10;75.50;;;;;;5034863;28;20405;-74
2020/12/23 06:24:31;;;;;;;1.10;0.90;;;12.10;75.40;;;;;;5034336;28;20033;-75
2020/12/23 06:26:59;;;;;;;3.58;2.10;;;12.20;75.20;;;;;;5034496;28;20071;-74
2020/12/23 06:29:27;;;;;;;5.97;3.13;;;12.20;75.20;;;;;;5034550;28;20508;-74
2020/12/23 06:32:03;;;;;;;9.57;4.68;;;12.20;75.20;;;;;;5034373;28;20021;-74
2020/12/23 06:34:31;;;;;;;5.38;3.03;;;12.20;75.10;;;;;;5034806;28;20018;-76
2020/12/23 06:36:58;;;;;;;7.90;4.07;;;12.20;75.10;;;;;;5034061;28;20053;-74
2020/12/23 06:39:28;;;;;;;8.90;4.95;;;12.20;75.40;;;;;;5036251;28;20658;-73
2020/12/23 06:42:13;;;;;;;7.72;4.32;;;12.20;75.50;;;;;;5036010;28;20126;-73
2020/12/23 06:44:45;;;;;;;7.05;3.33;;;12.30;75.50;;;;;;5033220;28;20045;-73
2020/12/23 06:47:24;;;;;;;5.80;3.05;;;12.30;75.50;;;;;;5033894;28;20060;-74
2020/12/23 06:50:00;;;;;;;2.22;1.45;;;12.20;75.40;;;;;;5034207;28;20488;-73
2020/12/23 06:52:29;;;;;;;2.58;1.40;;;12.30;75.50;;;;;;5034542;28;20362;-73
2020/12/23 06:55:01;;;;;;;4.85;1.73;;;12.30;75.20;;;;;;5035795;28;20109;-73
2020/12/23 06:57:39;;;;;;;5.78;1.92;;;12.30;75.20;;;;;;5036689;28;20014;-73
2020/12/23 07:00:11;;;;;;;3.08;1.63;;;12.40;74.80;;;;;;5034699;28;20026;-74
2020/12/23 07:02:44;;;;;;;7.03;2.70;;;12.40;74.70;;;;;;5033937;28;20041;-74
2020/12/23 07:05:12;;;;;;;6.85;2.20;;;12.40;75.70;;;;;;5033483;28;20110;-75
2020/12/23 07:07:43;;;;;;;4.53;1.35;;;12.50;76.40;;;;;;5034011;28;20022;-75
2020/12/23 07:10:11;;;;;;;3.40;1.35;;;12.70;75.10;;;;;;5041332;28;20474;-75
2020/12/23 07:12:56;;;;;;;4.90;1.23;;;12.80;74.00;;;;;;5033892;28;20026;-76
2020/12/23 07:15:24;;;;;;;1.15;0.50;;;13.00;74.40;;;;;;5033515;28;20052;-74
2020/12/23 07:17:51;;;;;;;2.10;0.68;;;13.10;73.50;;;;;;5036041;28;20124;-75
2020/12/23 07:20:20;;;;;;;1.17;0.60;;;13.20;70.80;;;;;;5033758;28;20076;-76
2020/12/23 07:22:51;;;;;;;1.75;0.50;;;13.40;69.90;;;;;;5033706;28;20053;-75
2020/12/23 07:25:27;;;;;;;1.60;0.70;;;13.50;68.70;;;;;;5015743;28;20044;-75
2020/12/23 07:27:58;;;;;;;1.15;0.60;;;13.50;68.90;;;;;;5033437;28;20076;-75
2020/12/23 07:30:25;;;;;;;1.05;0.30;;;13.50;68.10;;;;;;5033410;28;20030;-74
2020/12/23 07:33:16;;;;;;;4.70;0.90;;;13.70;68.10;;;;;;5033410;28;20017;-74
2020/12/23 07:35:45;;;;;;;1.20;0.70;;;13.70;68.30;;;;;;5015629;28;20036;-75
2020/12/23 07:38:10;;;;;;;1.92;0.60;;;13.60;68.20;;;;;;5033384;28;20409;-74
2020/12/23 07:40:36;;;;;;;0.30;0.30;;;13.70;68.00;;;;;;5033256;28;20485;-74
2020/12/23 07:43:02;;;;;;;0.40;0.30;;;13.60;67.70;;;;;;5033358;28;20030;-74
2020/12/23 07:45:29;;;;;;;0.88;0.80;;;13.70;67.50;;;;;;5033104;28;20124;-76
2020/12/23 07:48:06;;;;;;;1.75;0.70;;;13.70;67.80;;;;;;5033150;28;20022;-73
2020/12/23 07:50:49;;;;;;;2.45;0.40;;;13.60;67.40;;;;;;5032501;28;20547;-74
2020/12/23 07:53:25;;;;;;;1.65;1.10;;;13.50;68.00;;;;;;5032892;28;20071;-73
2020/12/23 07:56:00;;;;;;;0.65;0.40;;;13.40;68.80;;;;;;5032889;28;20497;-73
2020/12/23 07:58:26;;;;;;;1.55;0.73;;;13.40;68.70;;;;;;5033232;28;20064;-74
2020/12/23 08:00:52;;;;;;;1.38;0.63;;;13.30;68.90;;;;;;5032966;28;20061;-74
2020/12/23 08:03:28;;;;;;;0.52;0.40;;;13.30;69.00;;;;;;5033017;28;20125;-76
2020/12/23 08:06:10;;;;;;;0.65;0.40;;;13.30;68.70;;;;;;5033029;28;20496;-74
2020/12/23 08:08:41;;;;;;;1.50;1.30;;;13.40;68.40;;;;;;5039828;28;20113;-72
2020/12/23 08:11:07;;;;;;;17.90;2.40;;;13.40;68.90;;;;;;5032865;28;20449;-72
2020/12/23 08:13:33;;;;;;;1.67;0.50;;;13.30;68.70;;;;;;5032673;28;20436;-72
2020/12/23 08:16:10;;;;;;;0.88;0.32;;;13.30;68.60;;;;;;5033592;28;20057;-73
2020/12/23 08:18:37;;;;;;;0.77;0.30;;;13.40;68.30;;;;;;5033019;28;20033;-72
2020/12/23 08:21:10;;;;;;;0.30;0.30;;;13.40;68.00;;;;;;5033190;28;20432;-71
2020/12/23 08:23:36;;;;;;;0.85;0.40;;;13.60;67.60;;;;;;5032459;28;20029;-72
2020/12/23 08:26:02;;;;;;;3.25;0.35;;;13.60;67.40;;;;;;5032822;28;20458;-72
2020/12/23 08:28:29;;;;;;;1.13;0.73;;;13.60;67.40;;;;;;5032676;28;20029;-75
2020/12/23 08:30:54;;;;;;;1.63;0.82;;;13.70;67.90;;;;;;5032410;28;20028;-73
2020/12/23 08:33:23;;;;;;;1.50;1.05;;;13.60;68.40;;;;;;5014729;28;20104;-75
2020/12/23 08:35:57;;;;;;;1.98;1.35;;;13.50;69.00;;;;;;5014679;28;20071;-73
2020/12/23 08:38:25;;;;;;;2.55;1.55;;;13.40;69.30;;;;;;5032669;28;20072;-73
2020/12/23 08:40:53;;;;;;;1.95;1.40;;;13.30;69.80;;;;;;5032462;28;20057;-71
2020/12/23 08:43:21;;;;;;;3.80;1.88;;;13.20;70.30;;;;;;5032609;28;20026;-72
2020/12/23 08:45:47;;;;;;;3.10;1.95;;;13.20;70.80;;;;;;5032083;28;20025;-72
2020/12/23 08:48:26;;;;;;;4.63;2.40;;;13.20;71.20;;;;;;5032334;28;20127;-72
2020/12/23 08:50:56;;;;;;;4.93;2.60;;;13.20;71.10;;;;;;5032435;28;20505;-73
2020/12/23 08:53:32;;;;;;;3.75;2.30;;;13.20;70.80;;;;;;5032377;28;20018;-72
2020/12/23 08:56:18;;;;;;;4.03;2.15;;;13.30;70.50;;;;;;5032043;28;20025;-73
2020/12/23 08:58:44;;;;;;;;;;;13.30;70.30;;;;;;5032347;28;20489;-74
2020/12/23 09:01:10;;;;;;;;;;;13.40;70.00;;;;;;5034330;28;19905;-73
2020/12/23 09:03:35;;;;;;;2.38;1.60;;;13.30;69.80;;;;;;5035652;28;19925;-77
2020/12/23 09:06:18;;;;;;;3.92;1.70;;;13.40;69.80;;;;;;5035880;28;20025;-72
2020/12/23 09:08:44;;;;;;;2.38;1.58;;;13.50;69.80;;;;;;5035840;28;20108;-75
2020/12/23 09:11:09;;;;;;;2.67;1.60;;;13.60;69.70;;;;;;5035865;28;20049;-72
2020/12/23 09:13:35;;;;;;;2.00;1.27;;;13.70;69.30;;;;;;5035871;28;20021;-73
2020/12/23 09:16:00;;;;;;;2.13;0.90;;;13.80;68.80;;;;;;5035887;28;20036;-73
2020/12/23 09:18:27;;;;;;;1.10;1.00;;;13.90;68.00;;;;;;5035568;28;20025;-73
2020/12/23 09:21:00;;;;;;;0.70;0.70;;;14.00;67.20;;;;;;5035589;28;20555;-73
2020/12/23 09:23:27;;;;;;;2.97;0.90;;;14.10;66.80;;;;;;5035283;28;20473;-73
2020/12/23 09:25:54;;;;;;;2.67;0.95;;;14.20;66.70;;;;;;5035636;28;20025;-73
2020/12/23 09:28:20;;;;;;;2.00;1.33;;;14.30;66.00;;;;;;5035313;28;20025;-74
2020/12/23 09:30:48;;;;;;;3.35;1.60;;;14.30;65.60;;;;;;5035309;28;20033;-73
2020/12/23 09:33:19;;;;;;;1.35;1.25;;;14.40;65.50;;;;;;5017610;28;20029;-72
2020/12/23 09:35:49;;;;;;;0.80;0.80;;;14.40;65.20;;;;;;5017294;28;20477;-73
2020/12/23 09:38:34;;;;;;;2.25;1.30;;;14.50;64.10;;;;;;5017820;28;20123;-73
2020/12/23 09:41:00;;;;;;;1.17;1.05;;;14.50;63.80;;;;;;5035443;28;20030;-73
2020/12/23 09:43:28;;;;;;;1.58;1.25;;;14.50;64.20;;;;;;5034914;28;20094;-76
2020/12/23 09:45:59;;;;;;;3.08;1.15;;;14.50;64.30;;;;;;5034463;28;20042;-73
2020/12/23 09:48:26;;;;;;;3.55;1.52;;;14.50;64.80;;;;;;5035082;28;20082;-73
2020/12/23 09:50:53;;;;;;;1.08;0.80;;;14.30;65.20;;;;;;5035619;28;20026;-73
2020/12/23 09:53:21;;;;;;;3.20;1.52;;;14.30;65.30;;;;;;5035100;28;20053;-83
2020/12/23 09:55:47;;;;;;;2.63;1.80;;;14.30;65.70;;;;;;5035716;28;20052;-73
2020/12/23 09:58:14;;;;;;;1.48;1.20;;;14.00;66.30;;;;;;5035335;28;20465;-73
2020/12/23 10:00:40;;;;;;;2.40;1.73;;;14.00;66.90;;;;;;5035250;28;20124;-73
2020/12/23 10:03:08;;;;;;;1.13;1.00;;;13.80;67.20;;;;;;5035100;28;20120;-73
2020/12/23 10:05:33;;;;;;;1.27;1.17;;;13.70;68.00;;;;;;5018440;28;20128;-73
2020/12/23 10:07:59;;;;;;;1.63;1.00;;;13.70;68.30;;;;;;5020471;28;20419;-76
2020/12/23 10:10:25;;;;;;;2.40;1.30;;;13.70;68.70;;;;;;5037255;28;20103;-74
2020/12/23 10:12:51;;;;;;;3.25;1.60;;;13.70;68.90;;;;;;5037314;28;20036;-72
2020/12/23 10:15:17;;;;;;;1.85;1.30;;;13.70;69.20;;;;;;5036346;28;20112;-75
2020/12/23 10:17:43;;;;;;;3.75;1.35;;;13.70;69.10;;;;;;5036570;28;20540;-75
2020/12/23 10:20:09;;;;;;;2.90;1.20;;;13.80;69.10;;;;;;5035326;28;20029;-73
2020/12/23 10:22:36;;;;;;;1.58;1.10;;;13.80;69.00;;;;;;5035487;28;20105;-74
2020/12/23 10:25:07;;;;;;;3.20;1.30;;;13.80;69.10;;;;;;5034390;28;20061;-74
2020/12/23 10:27:32;;;;;;;1.00;0.80;;;13.80;69.10;;;;;;5034343;28;20068;-74
2020/12/23 10:29:58;;;;;;;1.52;1.20;;;13.80;68.70;;;;;;5034316;28;20430;-74
2020/12/23 10:32:24;;;;;;;1.77;1.13;;;13.80;68.30;;;;;;5034313;28;20124;-74
2020/12/23 10:34:50;;;;;;;2.17;1.10;;;13.80;68.00;;;;;;5034212;28;20018;-73
2020/12/23 10:37:19;;;;;;;5.28;1.95;;;13.80;67.90;;;;;;5016252;28;20036;-75
2020/12/23 10:39:48;;;;;;;3.70;1.33;;;13.80;68.40;;;;;;5033951;28;20028;-73
2020/12/23 10:42:13;;;;;;;2.80;1.80;;;13.70;68.60;;;;;;5034446;28;20124;-74
2020/12/23 10:44:39;;;;;;;3.05;2.40;;;13.80;68.90;;;;;;5034155;28;20120;-73
2020/12/23 10:47:05;;;;;;;4.65;2.72;;;13.80;69.20;;;;;;5032692;28;20044;-75
2020/12/23 10:49:30;;;;;;;4.15;2.50;;;13.90;69.50;;;;;;5033742;28;20028;-73
2020/12/23 10:51:57;;;;;;;3.22;2.63;;;13.90;69.30;;;;;;5032532;28;20029;-75
2020/12/23 10:54:27;;;;;;;6.03;2.63;;;14.00;69.10;;;;;;5034078;28;20025;-72
2020/12/23 10:56:53;;;;;;;3.00;2.00;;;13.90;68.90;;;;;;5032323;28;20378;-75
2020/12/23 10:59:19;;;;;;;6.60;2.72;;;13.90;69.00;;;;;;5033657;28;20033;-74
2020/12/23 11:01:45;;;;;;;5.60;2.85;;;13.80;69.00;;;;;;5036321;28;20045;-75
2020/12/23 11:04:11;;;;;;;5.45;3.15;;;13.80;69.20;;;;;;5053704;28;20037;-74
2020/12/23 11:06:37;;;;;;;6.13;3.15;;;13.80;69.20;;;;;;5053423;28;20096;-74
2020/12/23 11:09:04;;;;;;;3.75;2.10;;;13.90;68.90;;;;;;5052869;28;20032;-76
2020/12/23 11:11:30;;;;;;;4.78;2.47;;;13.80;69.00;;;;;;5053110;28;20024;-74
2020/12/23 11:13:56;;;;;;;5.05;2.28;;;13.80;68.90;;;;;;5053404;28;20108;-75
2020/12/23 11:16:25;;;;;;;2.42;1.73;;;13.90;68.90;;;;;;5053300;28;20025;-74
2020/12/23 11:18:51;;;;;;;2.63;1.70;;;13.90;68.60;;;;;;5053318;28;20021;-75
2020/12/23 11:21:17;;;;;;;1.98;1.40;;;13.90;68.40;;;;;;5035767;28;20036;-75
2020/12/23 11:23:43;;;;;;;2.92;1.80;;;14.00;68.40;;;;;;5052585;28;20359;-74
2020/12/23 11:26:34;;;;;;;2.83;2.15;;;13.90;69.10;;;;;;5052774;28;20049;-74
2020/12/23 11:29:01;;;;;;;4.40;1.60;;;13.90;68.40;;;;;;5049022;28;20044;-75
2020/12/23 11:31:26;;;;;;;1.30;1.20;;;13.90;68.40;;;;;;5053332;28;20039;-73
2020/12/23 11:33:52;;;;;;;2.85;1.70;;;13.90;68.40;;;;;;5052480;28;20013;-75
2020/12/23 11:36:18;;;;;;;7.40;2.42;;;13.90;68.40;;;;;;5053010;28;20029;-75
2020/12/23 11:38:44;;;;;;;2.60;1.70;;;13.80;68.30;;;;;;5052633;28;20052;-72
2020/12/23 11:41:10;;;;;;;3.47;2.20;;;13.80;68.50;;;;;;5052946;28;20029;-73
2020/12/23 11:43:36;;;;;;;4.40;2.45;;;13.90;68.50;;;;;;5053065;28;20465;-73
2020/12/23 11:46:05;;;;;;;4.60;3.30;;;14.00;68.30;;;;;;5052401;28;20033;-72
2020/12/23 11:48:31;;;;;;;3.50;2.38;;;14.00;68.10;;;;;;5052915;28;20025;-73
2020/12/23 11:50:57;;;;;;;5.00;2.75;;;14.10;68.00;;;;;;5052755;28;20429;-73
2020/12/23 11:53:23;;;;;;;5.15;2.63;;;14.30;67.60;;;;;;5034682;28;20025;-74
2020/12/23 11:55:49;;;;;;;3.33;1.85;;;14.60;66.90;;;;;;5034477;28;20028;-73
2020/12/23 11:58:15;;;;;;;4.55;2.20;;;15.10;65.60;;;;;;5052405;28;20029;-73
2020/12/23 12:00:40;;;;;;;6.63;1.98;;;15.70;63.60;;;;;;5034875;28;20036;-73
2020/12/23 12:03:06;;;;;;;3.20;1.92;;;16.00;61.60;;;;;;5052501;28;20045;-74
2020/12/23 12:05:31;;;;;;;2.13;1.70;;;16.20;60.40;;;;;;5052389;28;20049;-74
2020/12/23 12:07:58;;;;;;;4.22;1.40;;;16.30;59.80;;;;;;5034858;28;20139;-73
2020/12/23 12:10:23;;;;;;;1.90;1.25;;;16.40;59.30;;;;;;5034712;28;20070;-73
2020/12/23 12:12:49;;;;;;;2.30;1.17;;;16.20;58.90;;;;;;5052716;28;20426;-73
2020/12/23 12:15:14;;;;;;;1.40;1.08;;;16.00;59.40;;;;;;5052763;28;20029;-74
2020/12/23 12:17:40;;;;;;;2.80;1.40;;;15.70;60.30;;;;;;5052306;28;20108;-73
2020/12/23 12:20:06;;;;;;;1.88;1.25;;;15.50;60.80;;;;;;5052226;28;20036;-73
2020/12/23 12:22:31;;;;;;;2.20;1.45;;;15.40;61.40;;;;;;5034643;28;20021;-73
2020/12/23 12:24:57;;;;;;;2.72;1.75;;;15.30;61.90;;;;;;5052399;28;20488;-74
2020/12/23 12:27:22;;;;;;;2.15;1.40;;;15.10;62.50;;;;;;5051793;28;20123;-73
2020/12/23 12:29:48;;;;;;;3.90;1.17;;;15.00;63.00;;;;;;5052559;28;20029;-73
2020/12/23 12:32:15;;;;;;;2.65;1.58;;;14.90;63.40;;;;;;5034204;28;20021;-74
2020/12/23 12:34:41;;;;;;;3.03;1.70;;;14.70;63.70;;;;;;5034389;28;20025;-74
2020/12/23 12:37:06;;;;;;;3.83;1.80;;;14.70;64.10;;;;;;5042534;28;20114;-74
2020/12/23 12:39:32;;;;;;;4.68;3.22;;;14.60;64.30;;;;;;5069281;28;20461;-74
2020/12/23 12:42:01;;;;;;;6.35;4.10;;;14.50;64.60;;;;;;5061084;28;20063;-73
2020/12/23 12:44:27;;;;;;;7.03;4.50;;;14.50;65.30;;;;;;5043615;28;20040;-73
2020/12/23 12:46:53;;;;;;;6.75;3.75;;;14.40;65.60;;;;;;5057453;28;20017;-73
2020/12/23 12:49:18;;;;;;;7.97;3.95;;;14.40;65.70;;;;;;5038948;28;20066;-73